Time;durP1;ratioP1;P1;durP2;ratioP2;P2;SDS_P1;SDS_P2;PMS_P1;PMS_P2;Temp;Humidity;BMP_temperature;BMP_pressure;BME280_temperature;BME280_humidity;BME280_pressure;Samples;Min_cycle;Max_cycle;Signal;HPM_P1;HPM_P2
2024/04/12 00:01:08;;;;;;;;;;;;;;;21.75;45.64;103108.03;5351047;26;19925;-81
2024/04/12 00:03:36;;;;;;;;;;;;;;;21.79;45.98;103106.78;5351472;26;19929;-81
2024/04/12 00:06:06;;;;;;;;;;;;;;;21.76;45.69;103102.59;5350317;26;19926;-81
2024/04/12 00:08:32;;;;;;;;;;;;;;;21.75;45.36;103098.25;5348336;26;19938;-81
2024/04/12 00:11:05;;;;;;;;;;;;;;;21.76;45.47;103093.78;5321570;26;19932;-80
2024/04/12 00:13:36;;;;;;;;;;;;;;;21.71;45.87;103094.19;5322769;26;20317;-81
2024/04/12 00:16:03;;;;;;;;;;;;;;;21.75;45.81;103078.84;5359717;26;19933;-80
2024/04/12 00:18:35;;;;;;;;;;;;;;;21.74;45.61;103085.97;5322277;26;19937;-81
2024/04/12 00:21:05;;;;;;;;;;;;;;;21.73;45.58;103068.38;5365147;26;19954;-81
2024/04/12 00:23:31;;;;;;;;;;;;;;;21.78;45.36;103065.31;5389855;26;19932;-80
2024/04/12 00:26:00;;;;;;;;;;;;;;;21.77;45.50;103061.81;5392955;26;19931;-81
2024/04/12 00:28:31;;;;;;;;;;;;;;;21.74;45.79;103066.56;5386002;26;19925;-80
2024/04/12 00:30:59;;;;;;;;;;;;;;;21.81;45.44;103057.06;5384611;26;19933;-82
2024/04/12 00:33:31;;;;;;;;;;;;;;;21.78;45.33;103055.53;5382922;26;20236;-83
2024/04/12 00:36:13;;;;;;;;;;;;;;;21.70;45.77;103044.78;5388961;26;20028;-83
2024/04/12 00:38:43;;;;;;;;;;;;;;;21.71;45.84;103047.28;5390220;26;19932;-83
2024/04/12 00:41:19;;;;;;;;;;;;;;;21.75;45.58;103039.91;5372484;26;20421;-85
2024/04/12 00:43:47;;;;;;;;;;;;;;;21.74;45.70;103034.75;5386769;26;19932;-83
2024/04/12 00:46:19;;;;;;;;;;;;;;;21.74;45.67;103024.97;5372291;26;19944;-84
2024/04/12 00:48:51;;;;;;;;;;;;;;;21.75;45.40;103023.16;5389337;26;19933;-84
2024/04/12 00:51:17;;;;;;;;;;;;;;;21.67;45.43;103026.50;5399890;26;19924;-83
2024/04/12 00:53:47;;;;;;;;;;;;;;;21.73;45.77;103030.44;5391131;26;20234;-83
2024/04/12 00:56:14;;;;;;;;;;;;;;;21.70;45.51;103027.03;5391319;26;19925;-83
2024/04/12 00:58:42;;;;;;;;;;;;;;;21.69;45.70;103024.53;5400540;26;19925;-84
2024/04/12 01:01:18;;;;;;;;;;;;;;;21.72;45.54;103016.31;5372451;26;20383;-84
2024/04/12 01:03:54;;;;;;;;;;;;;;;21.74;45.37;103021.50;5400089;26;19940;-83
2024/04/12 01:06:24;;;;;;;;;;;;;;;21.69;45.64;103024.53;5397463;26;19972;-84
2024/04/12 01:09:10;;;;;;;;;;;;;;;21.70;45.93;103005.00;5396863;26;19933;-83
2024/04/12 01:11:36;;;;;;;;;;;;;;;21.71;45.43;103004.03;5371921;26;19940;-84
2024/04/12 01:14:02;;;;;;;;;;;;;;;21.71;45.49;103004.03;5393865;26;19945;-84
2024/04/12 01:16:29;;;;;;;;;;;;;;;21.68;45.75;103009.59;5393226;26;19998;-84
2024/04/12 01:18:55;;;;;;;;;;;;;;;21.67;45.46;103007.94;5360875;26;20330;-84
2024/04/12 01:21:24;;;;;;;;;;;;;;;21.73;45.47;102991.47;5399248;26;19932;-84
2024/04/12 01:23:54;;;;;;;;;;;;;;;21.74;45.53;102992.31;5375127;26;19940;-84
2024/04/12 01:26:23;;;;;;;;;;;;;;;21.74;45.29;103000.28;5384127;26;19986;-83
2024/04/12 01:28:51;;;;;;;;;;;;;;;21.73;45.44;102986.19;5403142;26;23163;-85
2024/04/12 01:31:17;;;;;;;;;;;;;;;21.67;45.45;102987.56;5400389;26;19925;-84
2024/04/12 01:33:50;;;;;;;;;;;;;;;21.66;45.56;102977.94;5396958;26;19933;-84
2024/04/12 01:36:21;;;;;;;;;;;;;;;21.68;45.58;102968.03;5359440;26;19956;-84
2024/04/12 01:38:53;;;;;;;;;;;;;;;21.68;45.37;102960.06;5417235;26;19925;-84
2024/04/12 01:41:31;;;;;;;;;;;;;;;21.72;45.61;102955.31;5397219;26;19924;-84
2024/04/12 01:44:07;;;;;;;;;;;;;;;21.68;45.83;102952.09;5396608;26;20511;-84
2024/04/12 01:46:34;;;;;;;;;;;;;;;21.70;45.34;102947.50;5402827;26;19933;-84
2024/04/12 01:49:00;;;;;;;;;;;;;;;21.68;45.21;102946.81;5391183;26;19937;-84
2024/04/12 01:51:30;;;;;;;;;;;;;;;21.72;45.15;102944.69;5342622;26;20345;-85
2024/04/12 01:53:57;;;;;;;;;;;;;;;21.74;45.63;102957.84;5397629;26;19933;-85
2024/04/12 01:56:23;;;;;;;;;;;;;;;21.68;45.44;102965.38;5365386;26;20273;-85
2024/04/12 01:58:51;;;;;;;;;;;;;;;21.72;45.61;102963.25;5391988;26;19939;-84
2024/04/12 02:01:17;;;;;;;;;;;;;;;21.71;45.26;102959.78;5401536;26;19987;-85
2024/04/12 02:03:43;;;;;;;;;;;;;;;21.67;45.40;102961.03;5370710;26;19945;-85
2024/04/12 02:06:09;;;;;;;;;;;;;;;21.54;45.69;102944.56;5393865;26;20336;-84
2024/04/12 02:08:35;;;;;;;;;;;;;;;21.65;45.48;102973.59;5397601;26;19933;-85
2024/04/12 02:11:09;;;;;;;;;;;;;;;21.70;45.62;102981.97;5365152;26;19937;-84
2024/04/12 02:13:39;;;;;;;;;;;;;;;21.73;45.12;102985.34;5394133;26;19931;-84
2024/04/12 02:16:06;;;;;;;;;;;;;;;21.67;45.48;102976.13;5369647;26;19930;-84
2024/04/12 02:18:35;;;;;;;;;;;;;;;21.68;45.57;102980.44;5373782;26;19925;-84
2024/04/12 02:21:05;;;;;;;;;;;;;;;21.70;45.54;102978.47;5394018;26;19936;-84
2024/04/12 02:23:34;;;;;;;;;;;;;;;21.69;45.33;102979.47;5393672;26;20819;-84
2024/04/12 02:26:01;;;;;;;;;;;;;;;21.68;45.41;102973.31;5393594;26;19925;-84
2024/04/12 02:28:27;;;;;;;;;;;;;;;21.67;45.34;102976.13;5396363;26;19925;-84
2024/04/12 02:30:54;;;;;;;;;;;;;;;21.63;45.70;102970.25;5391825;26;20572;-83
2024/04/12 02:33:21;;;;;;;;;;;;;;;21.69;45.51;102963.56;5393618;26;19934;-84
2024/04/12 02:35:59;;;;;;;;;;;;;;;21.65;45.68;102955.03;5386687;26;20083;-84
2024/04/12 02:38:26;;;;;;;;;;;;;;;21.65;45.29;102952.38;5393844;26;19992;-83
2024/04/12 02:40:52;;;;;;;;;;;;;;;21.68;45.51;102959.22;5389011;26;19933;-84
2024/04/12 02:43:18;;;;;;;;;;;;;;;21.67;45.54;102957.56;5363370;26;19936;-84
2024/04/12 02:45:54;;;;;;;;;;;;;;;21.69;45.05;102963.56;5391478;26;19925;-84
2024/04/12 02:48:20;;;;;;;;;;;;;;;21.67;45.25;102965.50;5364877;26;19925;-83
2024/04/12 02:50:53;;;;;;;;;;;;;;;21.70;45.57;102965.22;5388375;26;19925;-84
2024/04/12 02:53:26;;;;;;;;;;;;;;;21.72;45.20;102963.25;5399499;26;19925;-83
2024/04/12 02:56:02;;;;;;;;;;;;;;;21.68;45.58;102953.94;5398423;26;19936;-83
2024/04/12 02:58:38;;;;;;;;;;;;;;;21.66;45.57;102948.75;5401754;26;20559;-84
2024/04/12 03:01:18;;;;;;;;;;;;;;;21.68;45.28;102959.22;5383152;26;20281;-84
2024/04/12 03:03:48;;;;;;;;;;;;;;;21.70;45.47;102949.31;5387487;26;20391;-84
2024/04/12 03:06:13;;;;;;;;;;;;;;;21.68;45.54;102943.31;5409461;26;19925;-84
2024/04/12 03:08:44;;;;;;;;;;;;;;;21.70;45.13;102939.53;5365337;26;19990;-84
2024/04/12 03:11:22;;;;;;;;;;;;;;;21.68;45.60;102928.25;5370003;26;19932;-84
2024/04/12 03:13:52;;;;;;;;;;;;;;;21.69;45.16;102929.06;5395905;26;19932;-84
2024/04/12 03:16:18;;;;;;;;;;;;;;;21.66;45.15;102932.84;5368470;26;19932;-84
2024/04/12 03:18:54;;;;;;;;;;;;;;;21.68;45.22;102925.59;5389821;26;19932;-84
2024/04/12 03:21:30;;;;;;;;;;;;;;;21.71;45.29;102921.81;5391760;26;19925;-84
2024/04/12 03:23:57;;;;;;;;;;;;;;;21.61;45.57;102919.19;5387992;26;20244;-84
2024/04/12 03:26:23;;;;;;;;;;;;;;;21.67;45.12;102923.91;5380694;26;19972;-83
2024/04/12 03:28:58;;;;;;;;;;;;;;;21.67;45.36;102921.28;5363889;26;19925;-83
2024/04/12 03:31:27;;;;;;;;;;;;;;;21.68;45.21;102922.94;5395927;26;19946;-84
2024/04/12 03:33:56;;;;;;;;;;;;;;;21.65;45.24;102917.91;5389604;26;19933;-84
2024/04/12 03:36:40;;;;;;;;;;;;;;;21.62;45.26;102914.72;5399310;26;19925;-84
2024/04/12 03:41:51;;;;;;;;;;;;;;;21.63;45.36;102919.03;5390751;26;19925;-84
2024/04/12 03:44:20;;;;;;;;;;;;;;;21.65;44.98;102909.97;5387716;26;20254;-84
2024/04/12 03:46:50;;;;;;;;;;;;;;;21.63;45.45;102905.78;5394064;26;19930;-85
2024/04/12 03:49:20;;;;;;;;;;;;;;;21.65;45.41;102903.84;5364831;26;19925;-84
2024/04/12 03:51:47;;;;;;;;;;;;;;;21.63;45.52;102911.09;5360077;26;19925;-82
2024/04/12 03:54:17;;;;;;;;;;;;;;;21.63;45.46;102908.44;5394741;26;19952;-83
2024/04/12 03:56:43;;;;;;;;;;;;;;;21.67;45.28;102893.91;5374998;26;19933;-83
2024/04/12 03:59:09;;;;;;;;;;;;;;;21.64;45.16;102895.03;5395048;26;19939;-83
2024/04/12 04:01:37;;;;;;;;;;;;;;;21.64;44.99;102894.22;5396695;26;19933;-84
2024/04/12 04:04:10;;;;;;;;;;;;;;;21.60;45.56;102895.47;5392859;26;19925;-84
2024/04/12 04:06:39;;;;;;;;;;;;;;;21.65;45.15;102878.16;5388594;26;19926;-84
2024/04/12 04:09:05;;;;;;;;;;;;;;;21.64;45.43;102875.66;5392020;26;19926;-84
2024/04/12 04:11:34;;;;;;;;;;;;;;;21.60;45.19;102882.22;5389676;26;19924;-84
2024/04/12 04:14:08;;;;;;;;;;;;;;;21.68;45.40;102885.81;5398454;26;19925;-84
2024/04/12 04:16:37;;;;;;;;;;;;;;;21.62;45.02;102893.50;5391590;26;19932;-84
2024/04/12 04:19:03;;;;;;;;;;;;;;;21.63;45.10;102903.13;5397416;26;19937;-84
2024/04/12 04:21:33;;;;;;;;;;;;;;;21.64;44.92;102910.94;5393175;26;20007;-84
2024/04/12 04:24:08;;;;;;;;;;;;;;;21.65;45.07;102914.44;5391576;26;19930;-84
2024/04/12 04:26:41;;;;;;;;;;;;;;;21.66;45.03;102916.09;5400498;26;20328;-84
2024/04/12 04:29:10;;;;;;;;;;;;;;;21.68;45.10;102900.88;5367713;26;19937;-84
2024/04/12 04:31:47;;;;;;;;;;;;;;;21.65;45.12;102906.47;5388734;26;19936;-84
2024/04/12 04:34:13;;;;;;;;;;;;;;;21.65;44.95;102907.31;5389507;26;20395;-84
2024/04/12 04:36:39;;;;;;;;;;;;;;;21.61;45.42;102897.97;5393411;26;19925;-84
2024/04/12 04:39:14;;;;;;;;;;;;;;;21.61;45.45;102895.34;5398383;26;19953;-85
2024/04/12 04:41:42;;;;;;;;;;;;;;;21.66;45.01;102908.16;5400700;26;20369;-84
2024/04/12 04:44:08;;;;;;;;;;;;;;;21.58;45.38;102892.97;5399518;26;19999;-84
2024/04/12 04:46:34;;;;;;;;;;;;;;;21.63;45.07;102890.72;5368230;26;20349;-84
2024/04/12 04:48:59;;;;;;;;;;;;;;;21.60;45.01;102888.34;5367286;26;20002;-84
2024/04/12 04:51:25;;;;;;;;;;;;;;;21.57;45.57;102898.41;5365532;26;19933;-85
2024/04/12 04:53:54;;;;;;;;;;;;;;;21.61;45.30;102883.88;5363025;26;19925;-84
2024/04/12 04:56:30;;;;;;;;;;;;;;;21.66;44.82;102892.25;5370022;26;19926;-84
2024/04/12 04:58:56;;;;;;;;;;;;;;;21.62;45.08;102886.41;5393193;26;19925;-84
2024/04/12 05:01:25;;;;;;;;;;;;;;;21.54;45.26;102878.28;5394253;26;19933;-85
2024/04/12 05:03:52;;;;;;;;;;;;;;;21.60;45.16;102877.75;5392923;26;19972;-84
2024/04/12 05:06:24;;;;;;;;;;;;;;;21.61;45.31;102876.78;5404232;26;19925;-84
2024/04/12 05:08:56;;;;;;;;;;;;;;;21.61;45.50;102878.59;5400571;26;19925;-85
2024/04/12 05:11:24;;;;;;;;;;;;;;;21.60;45.45;102877.75;5396036;26;20640;-85
2024/04/12 05:13:55;;;;;;;;;;;;;;;21.63;45.28;102879.28;5367304;26;19931;-85
2024/04/12 05:16:22;;;;;;;;;;;;;;;21.54;45.22;102883.59;5393002;26;19925;-84
2024/04/12 05:18:48;;;;;;;;;;;;;;;21.57;45.11;102878.03;5393596;26;20432;-85
2024/04/12 05:21:14;;;;;;;;;;;;;;;21.57;45.41;102877.22;5397527;26;19929;-84
2024/04/12 05:23:40;;;;;;;;;;;;;;;21.61;44.95;102884.72;5400828;26;19924;-85
2024/04/12 05:26:06;;;;;;;;;;;;;;;21.58;45.32;102877.06;5370681;26;19975;-86
2024/04/12 05:28:38;;;;;;;;;;;;;;;21.57;45.24;102882.50;5369300;26;19960;-85
2024/04/12 05:31:11;;;;;;;;;;;;;;;21.59;45.01;102876.09;5372483;26;19977;-85
2024/04/12 05:33:43;;;;;;;;;;;;;;;21.60;44.87;102866.31;5403910;26;19964;-85
2024/04/12 05:36:10;;;;;;;;;;;;;;;21.60;45.33;102872.44;5390451;26;20507;-85
2024/04/12 05:38:36;;;;;;;;;;;;;;;21.56;45.64;102865.75;5360336;26;19944;-84
2024/04/12 05:41:04;;;;;;;;;;;;;;;21.60;45.16;102871.63;5389295;26;19939;-84
2024/04/12 05:43:30;;;;;;;;;;;;;;;21.57;45.45;102870.09;5420226;26;20349;-84
2024/04/12 05:45:57;;;;;;;;;;;;;;;21.63;44.83;102868.69;5392925;26;19940;-84
2024/04/12 05:48:24;;;;;;;;;;;;;;;21.63;44.76;102868.69;5399022;26;20002;-83
2024/04/12 05:50:50;;;;;;;;;;;;;;;21.61;44.81;102867.97;5339786;26;19932;-83
2024/04/12 05:53:16;;;;;;;;;;;;;;;21.63;44.93;102866.84;5394236;26;19933;-83
2024/04/12 05:55:46;;;;;;;;;;;;;;;21.60;45.09;102874.25;5412588;26;20060;-85
2024/04/12 05:58:15;;;;;;;;;;;;;;;21.60;45.28;102876.91;5362199;26;19925;-83
2024/04/12 06:00:42;;;;;;;;;;;;;;;21.57;45.34;102864.78;5395643;26;20340;-80
2024/04/12 06:03:17;;;;;;;;;;;;;;;21.56;45.27;102863.13;5396914;26;19990;-83
2024/04/12 06:05:55;;;;;;;;;;;;;;;21.57;45.03;102867.44;5367102;26;19941;-82
2024/04/12 06:08:24;;;;;;;;;;;;;;;21.59;45.04;102865.47;5392835;26;19925;-81
2024/04/12 06:10:50;;;;;;;;;;;;;;;21.61;45.33;102867.97;5372094;26;19925;-81
2024/04/12 06:13:17;;;;;;;;;;;;;;;21.57;45.22;102862.13;5397088;26;19933;-82
2024/04/12 06:15:43;;;;;;;;;;;;;;;21.50;45.21;102857.53;5353423;26;19929;-79
2024/04/12 06:18:12;;;;;;;;;;;;;;;21.55;45.54;102861.44;5401102;26;20596;-80
2024/04/12 06:20:39;;;;;;;;;;;;;;;21.57;45.12;102856.84;5367524;26;19929;-79
2024/04/12 06:23:08;;;;;;;;;;;;;;;21.58;45.50;102861.16;5397817;26;19959;-79
2024/04/12 06:25:38;;;;;;;;;;;;;;;21.57;44.99;102856.84;5430739;26;19939;-82
2024/04/12 06:28:13;;;;;;;;;;;;;;;21.60;45.56;102861.00;5405330;26;19924;-81
2024/04/12 06:30:46;;;;;;;;;;;;;;;21.59;45.02;102865.47;5394486;26;19925;-81
2024/04/12 06:33:12;;;;;;;;;;;;;;;21.58;45.44;102874.41;5398744;26;19933;-80
2024/04/12 06:35:44;;;;;;;;;;;;;;;21.59;44.96;102876.09;5435328;26;20570;-82
2024/04/12 06:38:10;;;;;;;;;;;;;;;21.61;45.21;102876.78;5374962;26;19933;-81
2024/04/12 06:40:37;;;;;;;;;;;;;;;21.57;45.05;102874.56;5398572;26;19931;-81
2024/04/12 06:43:05;;;;;;;;;;;;;;;21.59;45.24;102877.91;5422537;26;20246;-84
2024/04/12 06:45:43;;;;;;;;;;;;;;;21.58;45.44;102871.75;5432012;26;19936;-80
2024/04/12 06:48:16;;;;;;;;;;;;;;;21.57;45.19;102874.56;5442783;26;19924;-81
2024/04/12 06:50:55;;;;;;;;;;;;;;;21.60;44.94;102874.25;5388449;26;19936;-80
2024/04/12 06:53:21;;;;;;;;;;;;;;;21.56;45.63;102886.97;5410899;26;19932;-77
2024/04/12 06:55:49;;;;;;;;;;;;;;;21.63;45.16;102881.94;5406593;26;19966;-78
2024/04/12 06:58:18;;;;;;;;;;;;;;;21.60;45.07;102884.88;5441262;26;19971;-78
2024/04/12 07:00:48;;;;;;;;;;;;;;;21.58;45.29;102874.41;5435793;26;19924;-78
2024/04/12 07:03:16;;;;;;;;;;;;;;;21.64;45.21;102876.47;5397187;26;19960;-77
2024/04/12 07:05:47;;;;;;;;;;;;;;;21.88;45.11;102878.66;5371005;26;19933;-78
2024/04/12 07:08:16;;;;;;;;;;;;;;;22.33;44.13;102879.78;5377962;26;19988;-77
2024/04/12 07:10:42;;;;;;;;;;;;;;;22.58;43.65;102879.91;5379774;26;19925;-78
2024/04/12 07:13:08;;;;;;;;;;;;;;;22.62;43.20;102883.13;5378953;26;19935;-80
2024/04/12 07:15:34;;;;;;;;;;;;;;;22.60;43.53;102893.06;5373879;26;19933;-80
2024/04/12 07:18:02;;;;;;;;;;;;;;;22.56;43.59;102881.91;5434936;26;19961;-80
2024/04/12 07:20:36;;;;;;;;;;;;;;;22.52;43.67;102885.84;5376183;26;19925;-80
2024/04/12 07:23:03;;;;;;;;;;;;;;;22.53;43.74;102884.84;5379255;26;19932;-82
2024/04/12 07:25:29;;;;;;;;;;;;;;;22.51;43.81;102886.00;5406540;26;19994;-79
2024/04/12 07:27:55;;;;;;;;;;;;;;;22.44;44.10;102877.78;5431863;26;20329;-79
2024/04/12 07:30:21;;;;;;;;;;;;;;;22.42;44.04;102876.25;5343025;26;20333;-78
2024/04/12 07:32:47;;;;;;;;;;;;;;;22.40;44.28;102873.72;5404329;26;19990;-78
2024/04/12 07:35:26;;;;;;;;;;;;;;;22.42;44.42;102876.25;5367929;26;19933;-77
2024/04/12 07:37:59;;;;;;;;;;;;;;;22.43;44.05;102872.59;5430147;26;19931;-79
2024/04/12 07:40:25;;;;;;;;;;;;;;;22.38;44.12;102858.94;5368825;26;19932;-80
2024/04/12 07:42:52;;;;;;;;;;;;;;;22.36;44.42;102863.56;5350555;26;19991;-81
2024/04/12 07:45:28;;;;;;;;;;;;;;;22.35;44.30;102859.25;5398757;26;19962;-81
2024/04/12 07:48:00;;;;;;;;;;;;;;;22.34;44.55;102852.25;5377599;26;19968;-81
2024/04/12 07:50:39;;;;;;;;;;;;;;;22.33;44.46;102847.94;5429679;26;19990;-81
2024/04/12 07:55:55;;;;;;;;;;;;;;;22.32;44.61;102857.72;5438380;26;19932;-81
2024/04/12 07:58:34;;;;;;;;;;;;;;;22.31;44.58;102866.66;5374499;26;19932;-80
2024/04/12 08:01:10;;;;;;;;;;;;;;;22.34;44.33;102862.88;5369680;26;19924;-81
2024/04/12 08:03:39;;;;;;;;;;;;;;;22.29;44.45;102858.03;5394949;26;20059;-81
2024/04/12 08:06:06;;;;;;;;;;;;;;;22.26;44.77;102863.59;5389516;26;19925;-80
2024/04/12 08:09:03;;;;;;;;;;;;;;;22.28;44.55;102846.56;5399197;26;20504;-81
2024/04/12 08:11:41;;;;;;;;;;;;;;;22.31;44.75;102850.75;5397315;26;19925;-82
2024/04/12 08:14:08;;;;;;;;;;;;;;;22.30;44.48;102843.78;5380928;26;19957;-82
2024/04/12 08:16:35;;;;;;;;;;;;;;;22.31;44.43;102833.00;5427495;26;19925;-80
2024/04/12 08:19:14;;;;;;;;;;;;;;;22.32;44.68;102852.41;5405462;26;20361;-80
2024/04/12 08:21:44;;;;;;;;;;;;;;;22.32;44.43;102852.41;5406644;26;19990;-80
2024/04/12 08:24:22;;;;;;;;;;;;;;;22.33;44.61;102843.47;5382321;26;20036;-82
2024/04/12 08:26:48;;;;;;;;;;;;;;;22.30;44.41;102841.94;5432372;26;20062;-80
2024/04/12 08:29:26;;;;;;;;;;;;;;;22.30;44.42;102846.44;5414104;26;19936;-81
2024/04/12 08:34:42;;;;;;;;;;;;;;;22.27;44.27;102836.94;5407720;26;19937;-82
2024/04/12 08:37:16;;;;;;;;;;;;;;;22.21;44.65;102836.69;5431624;26;19924;-82
2024/04/12 08:39:45;;;;;;;;;;;;;;;21.97;44.87;102829.22;5378977;26;19960;-82
2024/04/12 08:42:18;;;;;;;;;;;;;;;21.96;45.18;102836.34;5433755;26;19925;-82
2024/04/12 08:44:47;;;;;;;;;;;;;;;21.90;45.87;102828.97;5377675;26;19925;-82
2024/04/12 08:47:30;;;;;;;;;;;;;;;21.86;46.60;102832.88;5396378;26;19932;-83
2024/04/12 08:50:06;;;;;;;;;;;;;;;21.91;46.03;102838.59;5383022;26;19972;-82
2024/04/12 08:52:58;;;;;;;;;;;;;;;21.90;46.30;102834.28;5396519;26;20313;-83
2024/04/12 08:55:24;;;;;;;;;;;;;;;21.93;46.68;102844.59;5436115;26;19944;-82
2024/04/12 08:57:56;;;;;;;;;;;;;;;21.89;46.81;102835.22;5396226;26;20406;-82
2024/04/12 09:00:28;;;;;;;;;;;;;;;21.90;46.78;102834.28;5372071;26;20317;-83
2024/04/12 09:02:58;;;;;;;;;;;;;;;21.95;47.03;102845.28;5373507;26;19925;-83
2024/04/12 09:05:27;;;;;;;;;;;;;;;22.02;46.92;102843.72;5401732;26;19924;-82
2024/04/12 09:08:03;;;;;;;;;;;;;;;21.78;48.14;102823.97;5401335;26;19991;-81
2024/04/12 09:10:34;;;;;;;;;;;;;;;21.84;47.67;102839.31;5427640;26;19925;-81
2024/04/12 09:13:08;;;;;;;;;;;;;;;21.87;47.79;102836.34;5399863;26;19925;-80
2024/04/12 09:15:34;;;;;;;;;;;;;;;21.93;47.78;102836.63;5398557;26;19968;-81
2024/04/12 09:18:15;;;;;;;;;;;;;;;21.81;46.60;102829.00;5403617;26;19976;-80
2024/04/12 09:20:44;;;;;;;;;;;;;;;21.97;45.93;102835.34;5402907;26;19937;-79
2024/04/12 09:23:14;;;;;;;;;;;;;;;21.86;45.43;102813.47;5372772;26;19956;-84
2024/04/12 09:25:54;;;;;;;;;;;;;;;21.82;45.58;102812.09;5406726;26;19932;-79
2024/04/12 09:28:22;;;;;;;;;;;;;;;21.81;45.50;102813.09;5380745;26;19936;-83
2024/04/12 09:33:39;;;;;;;;;;;;;;;21.60;44.29;102824.72;5345149;26;19924;-83
2024/04/12 09:36:06;;;;;;;;;;;;;;;21.57;45.17;102827.66;5404972;26;20269;-83
2024/04/12 09:38:39;;;;;;;;;;;;;;;21.59;43.80;102835.47;5406527;26;19925;-82
2024/04/12 09:41:27;;;;;;;;;;;;;;;21.49;44.26;102832.84;5384300;26;19994;-84
2024/04/12 09:43:54;;;;;;;;;;;;;;;21.44;44.47;102824.47;5422599;26;19925;-83
2024/04/12 09:46:36;;;;;;;;;;;;;;;21.33;44.27;102837.88;5436026;26;19925;-84
2024/04/12 10:39:49;;;;;;;;;;;;;;;21.73;40.45;102829.72;5398165;26;19932;-79
2024/04/12 10:42:19;;;;;;;;;;;;;;;21.67;40.41;102819.69;5401236;26;20189;-77
2024/04/12 10:44:51;;;;;;;;;;;;;;;21.70;40.01;102833.47;5405711;26;19957;-79
2024/04/12 10:47:20;;;;;;;;;;;;;;;21.71;40.10;102826.34;5399019;26;19925;-80
2024/04/12 10:49:49;;;;;;;;;;;;;;;21.68;39.66;102826.66;5406546;26;20354;-81
2024/04/12 10:52:16;;;;;;;;;;;;;;;21.65;39.42;102838.38;5401829;26;19937;-81
2024/04/12 10:54:47;;;;;;;;;;;;;;;21.64;39.71;102828.75;5399838;26;19951;-81
2024/04/12 10:57:19;;;;;;;;;;;;;;;21.64;39.36;102835.88;5399698;26;20284;-78
2024/04/12 10:59:47;;;;;;;;;;;;;;;21.62;39.26;102835.19;5407076;26;19940;-78
2024/04/12 11:02:13;;;;;;;;;;;;;;;21.56;39.42;102838.41;5378488;26;21178;-77
2024/04/12 11:07:24;;;;;;;;;;;;;;;21.58;38.96;102845.25;5432996;26;19957;-79
2024/04/12 11:10:03;;;;;;;;;;;;;;;21.57;38.97;102840.09;5408755;26;19925;-79
2024/04/12 11:12:29;;;;;;;;;;;;;;;21.70;39.06;102837.94;5410205;26;20573;-79
2024/04/12 11:31:28;;;;;;;;;;;;;;;21.63;39.97;102828.91;5358321;26;20268;-81
2024/04/12 11:33:55;;;;;;;;;;;;;;;21.66;40.40;102848.00;5416423;26;20010;-84
2024/04/12 11:36:21;;;;;;;;;;;;;;;21.71;40.50;102834.31;5402239;26;20023;-84
2024/04/12 11:38:48;;;;;;;;;;;;;;;21.71;40.82;102832.50;5413517;26;19931;-84
2024/04/12 11:41:15;;;;;;;;;;;;;;;21.75;40.67;102826.94;5398033;26;19925;-85
2024/04/12 11:43:47;;;;;;;;;;;;;;;21.76;40.83;102829.44;5398538;26;19926;-84
2024/04/12 11:46:16;;;;;;;;;;;;;;;21.73;41.14;102820.94;5369158;26;19925;-84
2024/04/12 11:48:43;;;;;;;;;;;;;;;21.75;41.64;102829.59;5356007;26;20105;-83
2024/04/12 11:51:09;;;;;;;;;;;;;;;21.74;41.33;102833.22;5409038;26;19965;-84
2024/04/12 11:53:38;;;;;;;;;;;;;;;21.76;41.34;102823.28;5404426;26;19929;-83
2024/04/12 11:56:04;;;;;;;;;;;;;;;21.74;41.34;102814.66;5380057;26;19925;-83
2024/04/12 11:58:30;;;;;;;;;;;;;;;21.75;41.55;102826.94;5407028;26;19925;-82
2024/04/12 12:00:58;;;;;;;;;;;;;;;21.78;41.44;102829.28;5343052;26;19932;-83
2024/04/12 12:03:25;;;;;;;;;;;;;;;21.92;41.35;102832.31;5372156;26;19937;-82
2024/04/12 12:05:53;;;;;;;;;;;;;;;21.95;41.42;102828.53;5343497;26;19933;-83
2024/04/12 12:08:31;;;;;;;;;;;;;;;22.02;41.39;102816.34;5384311;26;19978;-83
2024/04/12 12:10:58;;;;;;;;;;;;;;;21.98;41.39;102814.97;5378859;26;21112;-84
2024/04/12 12:13:23;;;;;;;;;;;;;;;21.92;41.53;102812.91;5404799;26;19929;-83
2024/04/12 12:15:51;;;;;;;;;;;;;;;21.96;41.36;102812.47;5377700;26;19971;-83
2024/04/12 12:18:18;;;;;;;;;;;;;;;21.99;41.46;102811.34;5342562;26;20628;-83
2024/04/12 12:20:46;;;;;;;;;;;;;;;21.95;41.35;102821.41;5409616;26;19957;-82
2024/04/12 12:23:13;;;;;;;;;;;;;;;22.00;41.39;102820.97;5401682;26;19949;-82
2024/04/12 12:25:39;;;;;;;;;;;;;;;21.96;41.64;102822.25;5399934;26;19925;-84
2024/04/12 12:28:05;;;;;;;;;;;;;;;21.94;41.56;102810.94;5372907;26;19940;-83
2024/04/12 12:30:33;;;;;;;;;;;;;;;21.93;41.61;102812.75;5407468;26;19936;-84
2024/04/12 12:32:59;;;;;;;;;;;;;;;21.94;41.43;102810.94;5344168;26;19996;-82
2024/04/12 12:35:25;;;;;;;;;;;;;;;21.95;41.88;102813.44;5440521;26;20344;-84
2024/04/12 12:37:52;;;;;;;;;;;;;;;21.94;41.93;102811.78;5435072;26;19938;-84
2024/04/12 12:40:21;;;;;;;;;;;;;;;21.93;41.63;102811.94;5403754;26;19991;-84
2024/04/12 12:42:51;;;;;;;;;;;;;;;21.96;41.87;102811.63;5395999;26;19932;-84
2024/04/12 12:45:19;;;;;;;;;;;;;;;21.95;41.79;102820.56;5395592;26;20321;-84
2024/04/12 12:47:45;;;;;;;;;;;;;;;21.95;42.04;102818.75;5380278;26;19931;-83
2024/04/12 12:50:19;;;;;;;;;;;;;;;21.99;41.75;102824.59;5401412;26;19926;-83
2024/04/12 12:52:49;;;;;;;;;;;;;;;21.96;41.88;102812.47;5401822;26;20720;-83
2024/04/12 12:55:21;;;;;;;;;;;;;;;21.94;42.07;102822.38;5397981;26;20324;-84
2024/04/12 12:57:47;;;;;;;;;;;;;;;21.94;42.06;102824.22;5376517;26;19932;-83
2024/04/12 13:00:19;;;;;;;;;;;;;;;21.93;41.71;102826.03;5378760;26;19928;-83
2024/04/12 13:02:50;;;;;;;;;;;;;;;21.95;41.80;102824.06;5374401;26;20010;-83
2024/04/12 13:05:19;;;;;;;;;;;;;;;21.95;41.92;102823.22;5407206;26;20356;-85
2024/04/12 13:07:48;;;;;;;;;;;;;;;21.99;41.76;102814.00;5385494;26;20395;-83
2024/04/12 13:10:19;;;;;;;;;;;;;;;21.90;42.26;102807.75;5406088;26;20460;-83
2024/04/12 13:12:50;;;;;;;;;;;;;;;21.99;42.09;102809.50;5353623;26;19932;-83
2024/04/12 13:15:19;;;;;;;;;;;;;;;21.94;42.27;102806.47;5372310;26;22064;-84
2024/04/12 13:17:45;;;;;;;;;;;;;;;21.99;41.87;102814.00;5436546;26;19931;-82
2024/04/12 13:20:18;;;;;;;;;;;;;;;21.98;41.94;102810.50;5387071;26;19925;-83
2024/04/12 13:22:44;;;;;;;;;;;;;;;21.93;42.02;102812.75;5432832;26;19924;-83
2024/04/12 13:25:13;;;;;;;;;;;;;;;21.94;42.41;102803.81;5380898;26;20439;-83
2024/04/12 13:27:40;;;;;;;;;;;;;;;21.93;42.06;102804.81;5436743;26;19945;-83
2024/04/12 13:30:14;;;;;;;;;;;;;;;21.90;42.22;102805.09;5399722;26;19944;-84
2024/04/12 13:32:50;;;;;;;;;;;;;;;21.92;42.39;102797.84;5412184;26;20405;-84
2024/04/12 13:35:21;;;;;;;;;;;;;;;21.95;42.20;102796.69;5375435;26;19933;-83
2024/04/12 13:37:48;;;;;;;;;;;;;;;21.95;42.11;102805.50;5408004;26;21738;-83
2024/04/12 13:40:20;;;;;;;;;;;;;;;21.92;42.46;102802.31;5378587;26;19925;-83
2024/04/12 13:42:48;;;;;;;;;;;;;;;21.96;42.50;102798.38;5431016;26;20002;-83
2024/04/12 13:50:56;;;;;;;;;;;;;;;21.91;42.25;102804.13;5404065;26;19932;-81
2024/04/12 13:53:43;;;;;;;;;;;;;;;21.94;42.27;102798.50;5376087;26;19936;-83
2024/04/12 13:56:20;;;;;;;;;;;;;;;21.97;42.28;102789.44;5403433;26;19925;-83
2024/04/12 13:58:55;;;;;;;;;;;;;;;21.94;42.34;102800.34;5373246;26;19925;-83
2024/04/12 14:01:25;;;;;;;;;;;;;;;21.96;42.23;102793.06;5435565;26;19997;-83
2024/04/12 14:03:58;;;;;;;;;;;;;;;21.92;42.65;102784.56;5408804;26;20458;-82
2024/04/12 14:06:24;;;;;;;;;;;;;;;21.90;42.77;102778.56;5427935;26;19925;-83
2024/04/12 14:08:56;;;;;;;;;;;;;;;21.93;42.79;102788.06;5404522;26;19932;-83
2024/04/12 14:11:22;;;;;;;;;;;;;;;21.90;42.85;102788.31;5435571;26;19924;-83
2024/04/12 14:13:49;;;;;;;;;;;;;;;21.95;42.67;102783.44;5405177;26;19924;-83
2024/04/12 14:16:16;;;;;;;;;;;;;;;21.93;42.54;102788.06;5409873;26;20326;-83